createdAt,value
2022-10-30T19:35:00.558Z,14.3
2022-10-30T19:40:38.656Z,14.3
2022-10-30T19:45:44.374Z,14.3
2022-10-30T19:51:32.451Z,14.3
2022-10-30T19:56:46.359Z,14.2
2022-10-30T20:01:54.389Z,14.1
2022-10-30T20:07:36.446Z,13.8
2022-10-30T20:12:59.376Z,13.8
2022-10-30T20:18:11.020Z,13.8
2022-10-30T20:23:51.917Z,13.8
2022-10-30T20:29:35.421Z,13.8
2022-10-30T20:35:12.065Z,13.7
2022-10-30T20:40:49.115Z,13.6
2022-10-30T20:46:15.735Z,13.5
2022-10-30T20:51:53.166Z,13.4
2022-10-30T20:57:15.686Z,13.3
2022-10-30T21:02:54.833Z,13.3
2022-10-30T21:08:37.190Z,13.3
2022-10-30T21:13:45.266Z,13.3
2022-10-30T21:19:30.106Z,13.3
2022-10-30T21:25:08.200Z,13.3
2022-10-30T21:30:47.467Z,13.4
2022-10-30T21:36:29.951Z,13.3
2022-10-30T21:41:52.637Z,13.1
2022-10-30T21:47:35.020Z,13
2022-10-30T21:53:19.004Z,12.9
2022-10-30T21:58:41.421Z,12.9
2022-10-30T22:03:50.865Z,12.8
2022-10-30T22:09:15.117Z,12.7
2022-10-30T22:14:21.365Z,12.6
2022-10-30T22:19:44.203Z,12.6
2022-10-30T22:25:06.484Z,12.5
2022-10-30T22:30:27.683Z,12.4
2022-10-30T22:36:04.682Z,12.4
2022-10-30T22:41:42.926Z,12.3
2022-10-30T22:47:18.854Z,12.3
2022-10-30T22:52:43.467Z,12.3
2022-10-30T22:58:22.121Z,12.3
2022-10-30T23:04:01.477Z,12.3
2022-10-30T23:09:10.296Z,12.2
2022-10-30T23:14:48.667Z,12.1
2022-10-30T23:20:12.225Z,12.1
2022-10-30T23:25:33.765Z,12
2022-10-30T23:31:12.035Z,11.9
2022-10-30T23:36:48.378Z,11.8
2022-10-30T23:42:25.141Z,11.6
